sensor_id;sensor_type;location;lat;lon;timestamp;P1;durP1;ratioP1;P2;durP2;ratioP2
41952;SDS011;63613;28.200;112.870;2023-06-26T00:01:27;12.48;;;8.85;;
41952;SDS011;63613;28.200;112.870;2023-06-26T00:03:57;11.20;;;8.77;;
41952;SDS011;63613;28.200;112.870;2023-06-26T00:06:25;11.13;;;8.45;;
41952;SDS011;63613;28.200;112.870;2023-06-26T00:08:52;11.65;;;9.88;;
41952;SDS011;63613;28.200;112.870;2023-06-26T00:11:21;10.88;;;8.98;;
41952;SDS011;63613;28.200;112.870;2023-06-26T00:14:08;11.75;;;8.75;;
41952;SDS011;63613;28.200;112.870;2023-06-26T00:16:35;11.70;;;9.32;;
41952;SDS011;63613;28.200;112.870;2023-06-26T00:19:02;11.10;;;9.48;;
41952;SDS011;63613;28.200;112.870;2023-06-26T00:21:29;15.75;;;9.52;;
41952;SDS011;63613;28.200;112.870;2023-06-26T00:23:56;11.65;;;9.45;;
41952;SDS011;63613;28.200;112.870;2023-06-26T00:26:22;12.98;;;9.45;;
41952;SDS011;63613;28.200;112.870;2023-06-26T00:28:49;13.20;;;9.27;;
41952;SDS011;63613;28.200;112.870;2023-06-26T00:31:16;12.65;;;9.25;;
41952;SDS011;63613;28.200;112.870;2023-06-26T00:33:44;12.07;;;10.18;;
41952;SDS011;63613;28.200;112.870;2023-06-26T00:36:10;12.32;;;10.45;;
41952;SDS011;63613;28.200;112.870;2023-06-26T00:38:37;11.38;;;9.25;;
41952;SDS011;63613;28.200;112.870;2023-06-26T00:41:04;14.18;;;11.05;;
41952;SDS011;63613;28.200;112.870;2023-06-26T00:43:37;13.05;;;9.65;;
41952;SDS011;63613;28.200;112.870;2023-06-26T00:46:06;12.38;;;9.77;;
41952;SDS011;63613;28.200;112.870;2023-06-26T00:48:36;11.15;;;9.85;;
41952;SDS011;63613;28.200;112.870;2023-06-26T00:51:04;11.10;;;9.57;;
41952;SDS011;63613;28.200;112.870;2023-06-26T00:53:31;12.52;;;9.70;;
41952;SDS011;63613;28.200;112.870;2023-06-26T00:55:59;14.35;;;10.23;;
41952;SDS011;63613;28.200;112.870;2023-06-26T00:58:30;11.95;;;9.68;;
41952;SDS011;63613;28.200;112.870;2023-06-26T01:01:17;12.00;;;9.85;;
41952;SDS011;63613;28.200;112.870;2023-06-26T01:03:49;11.73;;;10.27;;
41952;SDS011;63613;28.200;112.870;2023-06-26T01:06:18;11.82;;;9.48;;
41952;SDS011;63613;28.200;112.870;2023-06-26T01:08:47;11.07;;;9.35;;
41952;SDS011;63613;28.200;112.870;2023-06-26T01:11:14;12.43;;;10.38;;
41952;SDS011;63613;28.200;112.870;2023-06-26T01:13:42;11.88;;;10.40;;
41952;SDS011;63613;28.200;112.870;2023-06-26T01:16:12;12.98;;;10.50;;
41952;SDS011;63613;28.200;112.870;2023-06-26T01:18:40;14.27;;;10.52;;
41952;SDS011;63613;28.200;112.870;2023-06-26T01:21:17;13.32;;;10.38;;
41952;SDS011;63613;28.200;112.870;2023-06-26T01:26:50;12.63;;;11.25;;
41952;SDS011;63613;28.200;112.870;2023-06-26T01:29:18;13.18;;;11.75;;
41952;SDS011;63613;28.200;112.870;2023-06-26T01:31:46;14.63;;;10.70;;
41952;SDS011;63613;28.200;112.870;2023-06-26T01:34:15;13.02;;;10.43;;
41952;SDS011;63613;28.200;112.870;2023-06-26T01:36:45;14.35;;;10.77;;
41952;SDS011;63613;28.200;112.870;2023-06-26T01:39:15;12.90;;;10.85;;
41952;SDS011;63613;28.200;112.870;2023-06-26T01:41:45;12.70;;;11.38;;
41952;SDS011;63613;28.200;112.870;2023-06-26T01:52:19;12.25;;;10.77;;
41952;SDS011;63613;28.200;112.870;2023-06-26T01:57:49;12.27;;;9.88;;
41952;SDS011;63613;28.200;112.870;2023-06-26T02:00:21;12.20;;;10.95;;
41952;SDS011;63613;28.200;112.870;2023-06-26T02:02:50;12.57;;;11.15;;
41952;SDS011;63613;28.200;112.870;2023-06-26T02:05:17;11.02;;;9.48;;
41952;SDS011;63613;28.200;112.870;2023-06-26T02:07:44;12.70;;;10.48;;
41952;SDS011;63613;28.200;112.870;2023-06-26T02:10:14;11.43;;;10.15;;
41952;SDS011;63613;28.200;112.870;2023-06-26T02:12:41;12.63;;;11.27;;
41952;SDS011;63613;28.200;112.870;2023-06-26T02:15:08;15.23;;;11.00;;
41952;SDS011;63613;28.200;112.870;2023-06-26T02:17:35;11.88;;;10.60;;
41952;SDS011;63613;28.200;112.870;2023-06-26T02:20:02;11.52;;;9.90;;
41952;SDS011;63613;28.200;112.870;2023-06-26T02:22:49;11.80;;;10.60;;
41952;SDS011;63613;28.200;112.870;2023-06-26T02:25:17;13.23;;;11.02;;
41952;SDS011;63613;28.200;112.870;2023-06-26T02:27:44;12.02;;;10.55;;
41952;SDS011;63613;28.200;112.870;2023-06-26T02:30:11;10.73;;;9.50;;
41952;SDS011;63613;28.200;112.870;2023-06-26T02:32:38;11.93;;;10.63;;
41952;SDS011;63613;28.200;112.870;2023-06-26T02:35:05;12.20;;;9.75;;
41952;SDS011;63613;28.200;112.870;2023-06-26T02:37:32;12.40;;;10.48;;
41952;SDS011;63613;28.200;112.870;2023-06-26T02:40:19;11.15;;;10.05;;
41952;SDS011;63613;28.200;112.870;2023-06-26T02:42:46;11.13;;;9.95;;
41952;SDS011;63613;28.200;112.870;2023-06-26T02:45:12;10.80;;;9.70;;
41952;SDS011;63613;28.200;112.870;2023-06-26T02:47:39;11.77;;;10.65;;
41952;SDS011;63613;28.200;112.870;2023-06-26T02:50:06;11.38;;;9.80;;
41952;SDS011;63613;28.200;112.870;2023-06-26T02:52:33;10.95;;;9.57;;
41952;SDS011;63613;28.200;112.870;2023-06-26T02:55:00;10.52;;;9.52;;
41952;SDS011;63613;28.200;112.870;2023-06-26T02:57:27;11.32;;;10.15;;
41952;SDS011;63613;28.200;112.870;2023-06-26T02:59:54;10.55;;;9.50;;
41952;SDS011;63613;28.200;112.870;2023-06-26T03:02:20;11.73;;;9.88;;
41952;SDS011;63613;28.200;112.870;2023-06-26T03:04:47;10.27;;;9.25;;
41952;SDS011;63613;28.200;112.870;2023-06-26T03:07:15;11.25;;;10.15;;
41952;SDS011;63613;28.200;112.870;2023-06-26T03:09:42;10.95;;;9.27;;
41952;SDS011;63613;28.200;112.870;2023-06-26T03:12:08;10.57;;;9.55;;
41952;SDS011;63613;28.200;112.870;2023-06-26T03:14:35;8.85;;;8.05;;
41952;SDS011;63613;28.200;112.870;2023-06-26T03:17:02;9.88;;;8.75;;
41952;SDS011;63613;28.200;112.870;2023-06-26T03:19:29;11.68;;;9.73;;
41952;SDS011;63613;28.200;112.870;2023-06-26T03:21:56;11.68;;;9.85;;
41952;SDS011;63613;28.200;112.870;2023-06-26T03:24:23;10.85;;;9.75;;
41952;SDS011;63613;28.200;112.870;2023-06-26T03:26:49;10.63;;;9.50;;
41952;SDS011;63613;28.200;112.870;2023-06-26T03:29:17;10.23;;;9.30;;
41952;SDS011;63613;28.200;112.870;2023-06-26T03:31:43;10.65;;;9.55;;
41952;SDS011;63613;28.200;112.870;2023-06-26T03:34:10;10.18;;;8.73;;
41952;SDS011;63613;28.200;112.870;2023-06-26T03:36:37;10.25;;;9.20;;
41952;SDS011;63613;28.200;112.870;2023-06-26T03:39:04;9.85;;;8.90;;
41952;SDS011;63613;28.200;112.870;2023-06-26T03:41:30;10.48;;;8.43;;
41952;SDS011;63613;28.200;112.870;2023-06-26T03:43:57;10.85;;;8.88;;
41952;SDS011;63613;28.200;112.870;2023-06-26T03:46:25;10.48;;;9.35;;
41952;SDS011;63613;28.200;112.870;2023-06-26T03:48:52;10.48;;;9.18;;
41952;SDS011;63613;28.200;112.870;2023-06-26T03:51:19;9.75;;;8.50;;
41952;SDS011;63613;28.200;112.870;2023-06-26T03:53:46;9.10;;;8.18;;
41952;SDS011;63613;28.200;112.870;2023-06-26T03:56:13;9.55;;;8.65;;
41952;SDS011;63613;28.200;112.870;2023-06-26T03:58:39;9.23;;;8.30;;
41952;SDS011;63613;28.200;112.870;2023-06-26T04:01:08;9.15;;;7.70;;
41952;SDS011;63613;28.200;112.870;2023-06-26T04:03:35;12.25;;;8.82;;
41952;SDS011;63613;28.200;112.870;2023-06-26T04:06:02;9.25;;;8.35;;
41952;SDS011;63613;28.200;112.870;2023-06-26T04:08:29;9.68;;;8.77;;
41952;SDS011;63613;28.200;112.870;2023-06-26T04:10:55;9.20;;;7.88;;
41952;SDS011;63613;28.200;112.870;2023-06-26T04:13:24;10.45;;;7.65;;
41952;SDS011;63613;28.200;112.870;2023-06-26T04:15:51;9.68;;;7.93;;
41952;SDS011;63613;28.200;112.870;2023-06-26T04:18:38;10.85;;;7.25;;
41952;SDS011;63613;28.200;112.870;2023-06-26T04:21:05;9.18;;;7.93;;
41952;SDS011;63613;28.200;112.870;2023-06-26T04:23:40;8.98;;;8.05;;
41952;SDS011;63613;28.200;112.870;2023-06-26T04:26:07;8.52;;;7.57;;
41952;SDS011;63613;28.200;112.870;2023-06-26T04:28:34;9.07;;;7.30;;
41952;SDS011;63613;28.200;112.870;2023-06-26T04:31:03;8.68;;;7.72;;
41952;SDS011;63613;28.200;112.870;2023-06-26T04:33:30;8.77;;;7.88;;
41952;SDS011;63613;28.200;112.870;2023-06-26T04:35:57;8.63;;;7.38;;
41952;SDS011;63613;28.200;112.870;2023-06-26T04:38:25;9.43;;;7.95;;
41952;SDS011;63613;28.200;112.870;2023-06-26T04:40:51;10.50;;;7.72;;
41952;SDS011;63613;28.200;112.870;2023-06-26T04:43:18;12.00;;;8.27;;
41952;SDS011;63613;28.200;112.870;2023-06-26T04:45:45;8.57;;;7.68;;
41952;SDS011;63613;28.200;112.870;2023-06-26T04:48:13;8.93;;;7.70;;
41952;SDS011;63613;28.200;112.870;2023-06-26T04:50:40;7.47;;;6.70;;
41952;SDS011;63613;28.200;112.870;2023-06-26T04:53:07;8.38;;;7.00;;
41952;SDS011;63613;28.200;112.870;2023-06-26T04:55:35;7.75;;;7.05;;
41952;SDS011;63613;28.200;112.870;2023-06-26T04:58:01;8.07;;;6.70;;
41952;SDS011;63613;28.200;112.870;2023-06-26T05:00:29;8.45;;;6.70;;
41952;SDS011;63613;28.200;112.870;2023-06-26T05:02:57;8.65;;;7.68;;
41952;SDS011;63613;28.200;112.870;2023-06-26T05:05:27;10.43;;;7.45;;
41952;SDS011;63613;28.200;112.870;2023-06-26T05:07:55;10.75;;;7.95;;
41952;SDS011;63613;28.200;112.870;2023-06-26T05:10:25;7.68;;;6.88;;
41952;SDS011;63613;28.200;112.870;2023-06-26T05:12:55;9.23;;;7.35;;
41952;SDS011;63613;28.200;112.870;2023-06-26T05:15:22;7.78;;;7.00;;
41952;SDS011;63613;28.200;112.870;2023-06-26T05:17:51;7.78;;;6.35;;
41952;SDS011;63613;28.200;112.870;2023-06-26T05:20:20;9.63;;;7.20;;
41952;SDS011;63613;28.200;112.870;2023-06-26T05:22:46;8.32;;;6.93;;
41952;SDS011;63613;28.200;112.870;2023-06-26T05:25:14;9.02;;;8.13;;
41952;SDS011;63613;28.200;112.870;2023-06-26T05:27:43;7.90;;;7.10;;
41952;SDS011;63613;28.200;112.870;2023-06-26T05:30:13;8.13;;;7.00;;
41952;SDS011;63613;28.200;112.870;2023-06-26T05:32:41;7.90;;;7.10;;
41952;SDS011;63613;28.200;112.870;2023-06-26T05:35:10;8.98;;;7.82;;
41952;SDS011;63613;28.200;112.870;2023-06-26T05:37:41;8.73;;;7.72;;
41952;SDS011;63613;28.200;112.870;2023-06-26T05:40:09;9.82;;;7.35;;
41952;SDS011;63613;28.200;112.870;2023-06-26T05:42:58;8.30;;;7.50;;
41952;SDS011;63613;28.200;112.870;2023-06-26T05:45:25;8.70;;;7.40;;
41952;SDS011;63613;28.200;112.870;2023-06-26T05:47:52;8.73;;;7.18;;
41952;SDS011;63613;28.200;112.870;2023-06-26T05:50:20;7.70;;;7.00;;
41952;SDS011;63613;28.200;112.870;2023-06-26T05:52:47;8.77;;;7.88;;
41952;SDS011;63613;28.200;112.870;2023-06-26T05:55:16;8.77;;;7.90;;
41952;SDS011;63613;28.200;112.870;2023-06-26T05:57:43;8.77;;;6.68;;
41952;SDS011;63613;28.200;112.870;2023-06-26T06:02:59;9.15;;;8.20;;
41952;SDS011;63613;28.200;112.870;2023-06-26T06:05:26;8.07;;;7.20;;
41952;SDS011;63613;28.200;112.870;2023-06-26T06:07:53;7.68;;;6.97;;
41952;SDS011;63613;28.200;112.870;2023-06-26T06:10:21;8.00;;;7.20;;
41952;SDS011;63613;28.200;112.870;2023-06-26T06:12:52;7.47;;;6.65;;
41952;SDS011;63613;28.200;112.870;2023-06-26T06:15:20;8.07;;;7.20;;
41952;SDS011;63613;28.200;112.870;2023-06-26T06:17:46;8.27;;;7.40;;
41952;SDS011;63613;28.200;112.870;2023-06-26T06:20:13;7.88;;;6.65;;
41952;SDS011;63613;28.200;112.870;2023-06-26T06:22:40;7.65;;;6.88;;
41952;SDS011;63613;28.200;112.870;2023-06-26T06:25:07;7.85;;;6.47;;
41952;SDS011;63613;28.200;112.870;2023-06-26T06:27:34;7.97;;;7.20;;
41952;SDS011;63613;28.200;112.870;2023-06-26T06:30:01;8.05;;;6.53;;
41952;SDS011;63613;28.200;112.870;2023-06-26T06:32:31;7.35;;;6.63;;
41952;SDS011;63613;28.200;112.870;2023-06-26T06:34:58;8.40;;;7.50;;
41952;SDS011;63613;28.200;112.870;2023-06-26T06:37:29;7.95;;;7.15;;
41952;SDS011;63613;28.200;112.870;2023-06-26T06:39:57;8.90;;;7.60;;
41952;SDS011;63613;28.200;112.870;2023-06-26T06:42:24;9.18;;;7.13;;
41952;SDS011;63613;28.200;112.870;2023-06-26T06:44:51;6.70;;;6.10;;
41952;SDS011;63613;28.200;112.870;2023-06-26T06:47:19;7.70;;;6.47;;
41952;SDS011;63613;28.200;112.870;2023-06-26T06:49:46;6.88;;;6.18;;
41952;SDS011;63613;28.200;112.870;2023-06-26T06:52:13;7.90;;;6.47;;
41952;SDS011;63613;28.200;112.870;2023-06-26T06:54:56;6.88;;;6.18;;
41952;SDS011;63613;28.200;112.870;2023-06-26T06:57:32;7.72;;;6.30;;
41952;SDS011;63613;28.200;112.870;2023-06-26T07:00:05;7.78;;;6.40;;
41952;SDS011;63613;28.200;112.870;2023-06-26T07:02:40;7.82;;;7.05;;
41952;SDS011;63613;28.200;112.870;2023-06-26T07:05:18;7.60;;;6.72;;
41952;SDS011;63613;28.200;112.870;2023-06-26T07:07:46;6.68;;;6.05;;
41952;SDS011;63613;28.200;112.870;2023-06-26T07:10:13;7.53;;;6.68;;
41952;SDS011;63613;28.200;112.870;2023-06-26T07:12:40;6.22;;;5.70;;
41952;SDS011;63613;28.200;112.870;2023-06-26T07:15:10;7.10;;;6.43;;
41952;SDS011;63613;28.200;112.870;2023-06-26T07:17:37;6.82;;;6.22;;
41952;SDS011;63613;28.200;112.870;2023-06-26T07:20:05;7.22;;;6.20;;
41952;SDS011;63613;28.200;112.870;2023-06-26T07:22:41;6.75;;;6.15;;
41952;SDS011;63613;28.200;112.870;2023-06-26T07:25:10;7.97;;;7.22;;
41952;SDS011;63613;28.200;112.870;2023-06-26T07:27:37;6.90;;;6.18;;
41952;SDS011;63613;28.200;112.870;2023-06-26T07:30:05;6.35;;;5.75;;
41952;SDS011;63613;28.200;112.870;2023-06-26T07:32:36;7.10;;;6.40;;
41952;SDS011;63613;28.200;112.870;2023-06-26T07:35:04;6.45;;;5.78;;
41952;SDS011;63613;28.200;112.870;2023-06-26T07:37:31;7.28;;;6.65;;
41952;SDS011;63613;28.200;112.870;2023-06-26T07:40:18;6.35;;;5.75;;
41952;SDS011;63613;28.200;112.870;2023-06-26T07:42:45;6.90;;;6.25;;
41952;SDS011;63613;28.200;112.870;2023-06-26T07:45:12;7.43;;;6.63;;
41952;SDS011;63613;28.200;112.870;2023-06-26T07:47:39;8.13;;;6.80;;
41952;SDS011;63613;28.200;112.870;2023-06-26T07:50:06;6.55;;;5.95;;
41952;SDS011;63613;28.200;112.870;2023-06-26T07:52:33;7.28;;;6.57;;
41952;SDS011;63613;28.200;112.870;2023-06-26T07:55:00;6.85;;;6.25;;
41952;SDS011;63613;28.200;112.870;2023-06-26T07:57:28;7.70;;;7.00;;
41952;SDS011;63613;28.200;112.870;2023-06-26T07:59:57;6.32;;;5.82;;
41952;SDS011;63613;28.200;112.870;2023-06-26T08:02:27;7.63;;;6.75;;
41952;SDS011;63613;28.200;112.870;2023-06-26T08:04:54;7.07;;;6.47;;
41952;SDS011;63613;28.200;112.870;2023-06-26T08:07:21;6.53;;;5.93;;
41952;SDS011;63613;28.200;112.870;2023-06-26T08:10:08;6.70;;;6.15;;
41952;SDS011;63613;28.200;112.870;2023-06-26T08:12:38;6.93;;;6.28;;
41952;SDS011;63613;28.200;112.870;2023-06-26T08:15:17;7.03;;;6.10;;
41952;SDS011;63613;28.200;112.870;2023-06-26T08:17:44;7.15;;;6.43;;
41952;SDS011;63613;28.200;112.870;2023-06-26T08:20:11;6.78;;;6.18;;
41952;SDS011;63613;28.200;112.870;2023-06-26T08:22:45;7.13;;;6.43;;
41952;SDS011;63613;28.200;112.870;2023-06-26T08:25:16;6.47;;;5.88;;
41952;SDS011;63613;28.200;112.870;2023-06-26T08:27:45;7.40;;;6.70;;
41952;SDS011;63613;28.200;112.870;2023-06-26T08:30:12;6.63;;;6.03;;
41952;SDS011;63613;28.200;112.870;2023-06-26T08:32:59;7.43;;;6.72;;
41952;SDS011;63613;28.200;112.870;2023-06-26T08:35:28;6.78;;;6.18;;
41952;SDS011;63613;28.200;112.870;2023-06-26T08:37:54;6.80;;;6.20;;
41952;SDS011;63613;28.200;112.870;2023-06-26T08:40:21;6.90;;;6.30;;
41952;SDS011;63613;28.200;112.870;2023-06-26T08:42:48;7.05;;;6.35;;
41952;SDS011;63613;28.200;112.870;2023-06-26T08:45:18;6.80;;;6.05;;
41952;SDS011;63613;28.200;112.870;2023-06-26T08:47:45;6.47;;;5.90;;
41952;SDS011;63613;28.200;112.870;2023-06-26T08:50:20;7.35;;;6.65;;
41952;SDS011;63613;28.200;112.870;2023-06-26T08:52:56;7.63;;;6.97;;
41952;SDS011;63613;28.200;112.870;2023-06-26T08:55:33;7.10;;;6.50;;
41952;SDS011;63613;28.200;112.870;2023-06-26T08:58:04;7.32;;;6.63;;
41952;SDS011;63613;28.200;112.870;2023-06-26T09:00:30;7.55;;;6.85;;
41952;SDS011;63613;28.200;112.870;2023-06-26T09:02:58;8.02;;;7.30;;
41952;SDS011;63613;28.200;112.870;2023-06-26T09:05:26;7.13;;;6.45;;
41952;SDS011;63613;28.200;112.870;2023-06-26T09:07:53;7.85;;;7.07;;
41952;SDS011;63613;28.200;112.870;2023-06-26T09:10:24;8.35;;;7.65;;
41952;SDS011;63613;28.200;112.870;2023-06-26T09:12:50;7.28;;;6.63;;
41952;SDS011;63613;28.200;112.870;2023-06-26T09:15:23;7.50;;;6.80;;
41952;SDS011;63613;28.200;112.870;2023-06-26T09:17:50;7.85;;;7.15;;
41952;SDS011;63613;28.200;112.870;2023-06-26T09:20:23;7.90;;;7.10;;
41952;SDS011;63613;28.200;112.870;2023-06-26T09:22:53;8.75;;;8.05;;
41952;SDS011;63613;28.200;112.870;2023-06-26T09:25:21;8.55;;;7.72;;
41952;SDS011;63613;28.200;112.870;2023-06-26T09:27:48;8.32;;;7.55;;
41952;SDS011;63613;28.200;112.870;2023-06-26T09:30:18;8.60;;;7.85;;
41952;SDS011;63613;28.200;112.870;2023-06-26T09:32:45;8.18;;;7.47;;
41952;SDS011;63613;28.200;112.870;2023-06-26T09:35:12;7.72;;;7.13;;
41952;SDS011;63613;28.200;112.870;2023-06-26T09:37:59;8.93;;;8.18;;
41952;SDS011;63613;28.200;112.870;2023-06-26T09:40:27;7.53;;;6.90;;
41952;SDS011;63613;28.200;112.870;2023-06-26T09:42:54;8.02;;;7.22;;
41952;SDS011;63613;28.200;112.870;2023-06-26T09:45:48;8.38;;;7.53;;
41952;SDS011;63613;28.200;112.870;2023-06-26T09:48:15;8.00;;;7.30;;
41952;SDS011;63613;28.200;112.870;2023-06-26T09:50:43;9.13;;;8.25;;
41952;SDS011;63613;28.200;112.870;2023-06-26T09:53:10;8.95;;;8.20;;
41952;SDS011;63613;28.200;112.870;2023-06-26T09:55:42;8.65;;;7.85;;
41952;SDS011;63613;28.200;112.870;2023-06-26T09:58:12;9.07;;;8.20;;
41952;SDS011;63613;28.200;112.870;2023-06-26T10:00:46;8.38;;;7.57;;
41952;SDS011;63613;28.200;112.870;2023-06-26T10:03:13;7.87;;;7.23;;
41952;SDS011;63613;28.200;112.870;2023-06-26T10:05:40;9.05;;;8.13;;
41952;SDS011;63613;28.200;112.870;2023-06-26T10:08:12;9.07;;;8.30;;
41952;SDS011;63613;28.200;112.870;2023-06-26T10:10:39;8.32;;;7.40;;
41952;SDS011;63613;28.200;112.870;2023-06-26T10:13:08;8.57;;;7.85;;
41952;SDS011;63613;28.200;112.870;2023-06-26T10:15:42;9.23;;;8.43;;
41952;SDS011;63613;28.200;112.870;2023-06-26T10:18:12;8.88;;;8.07;;
41952;SDS011;63613;28.200;112.870;2023-06-26T10:20:41;8.75;;;7.85;;
41952;SDS011;63613;28.200;112.870;2023-06-26T10:23:11;7.88;;;7.18;;
41952;SDS011;63613;28.200;112.870;2023-06-26T10:25:43;7.97;;;7.28;;
41952;SDS011;63613;28.200;112.870;2023-06-26T10:28:30;9.23;;;8.32;;
41952;SDS011;63613;28.200;112.870;2023-06-26T10:31:00;8.90;;;8.10;;
41952;SDS011;63613;28.200;112.870;2023-06-26T10:33:29;10.10;;;8.90;;
41952;SDS011;63613;28.200;112.870;2023-06-26T10:36:12;10.05;;;8.30;;
41952;SDS011;63613;28.200;112.870;2023-06-26T10:38:57;8.88;;;7.95;;
41952;SDS011;63613;28.200;112.870;2023-06-26T10:41:27;10.20;;;8.82;;
41952;SDS011;63613;28.200;112.870;2023-06-26T10:46:52;11.73;;;10.05;;
41952;SDS011;63613;28.200;112.870;2023-06-26T10:49:20;10.95;;;9.23;;
41952;SDS011;63613;28.200;112.870;2023-06-26T10:51:53;13.60;;;10.05;;
41952;SDS011;63613;28.200;112.870;2023-06-26T10:54:23;12.35;;;9.88;;
41952;SDS011;63613;28.200;112.870;2023-06-26T10:56:54;11.65;;;8.75;;
41952;SDS011;63613;28.200;112.870;2023-06-26T10:59:25;11.63;;;9.30;;
41952;SDS011;63613;28.200;112.870;2023-06-26T11:01:59;17.25;;;11.48;;
41952;SDS011;63613;28.200;112.870;2023-06-26T11:07:18;19.63;;;10.98;;
41952;SDS011;63613;28.200;112.870;2023-06-26T11:15:12;13.10;;;10.77;;
41952;SDS011;63613;28.200;112.870;2023-06-26T11:17:43;15.07;;;11.07;;
41952;SDS011;63613;28.200;112.870;2023-06-26T11:20:12;18.42;;;11.90;;
41952;SDS011;63613;28.200;112.870;2023-06-26T11:22:40;19.38;;;12.52;;
41952;SDS011;63613;28.200;112.870;2023-06-26T11:25:08;16.58;;;11.35;;
41952;SDS011;63613;28.200;112.870;2023-06-26T11:27:43;19.58;;;11.90;;
41952;SDS011;63613;28.200;112.870;2023-06-26T11:30:11;18.58;;;11.52;;
41952;SDS011;63613;28.200;112.870;2023-06-26T11:32:51;17.38;;;11.20;;
41952;SDS011;63613;28.200;112.870;2023-06-26T11:35:38;19.23;;;12.00;;
41952;SDS011;63613;28.200;112.870;2023-06-26T11:38:05;17.25;;;11.75;;
41952;SDS011;63613;28.200;112.870;2023-06-26T11:40:35;14.13;;;11.25;;
41952;SDS011;63613;28.200;112.870;2023-06-26T11:43:03;15.30;;;11.45;;
41952;SDS011;63613;28.200;112.870;2023-06-26T11:45:31;16.88;;;12.45;;
41952;SDS011;63613;28.200;112.870;2023-06-26T11:48:18;18.00;;;11.52;;
41952;SDS011;63613;28.200;112.870;2023-06-26T11:50:45;15.25;;;11.43;;
41952;SDS011;63613;28.200;112.870;2023-06-26T11:53:15;16.45;;;11.70;;
41952;SDS011;63613;28.200;112.870;2023-06-26T11:55:42;15.02;;;11.00;;
41952;SDS011;63613;28.200;112.870;2023-06-26T11:58:36;15.60;;;11.70;;
41952;SDS011;63613;28.200;112.870;2023-06-26T12:01:23;16.80;;;11.18;;
41952;SDS011;63613;28.200;112.870;2023-06-26T12:06:42;16.38;;;11.80;;
41952;SDS011;63613;28.200;112.870;2023-06-26T12:09:13;16.42;;;11.27;;
41952;SDS011;63613;28.200;112.870;2023-06-26T12:11:43;15.95;;;12.35;;
41952;SDS011;63613;28.200;112.870;2023-06-26T12:14:13;13.30;;;10.73;;
41952;SDS011;63613;28.200;112.870;2023-06-26T12:16:41;15.98;;;10.98;;
41952;SDS011;63613;28.200;112.870;2023-06-26T12:19:30;15.13;;;11.32;;
41952;SDS011;63613;28.200;112.870;2023-06-26T12:21:57;16.05;;;11.63;;
41952;SDS011;63613;28.200;112.870;2023-06-26T12:24:27;15.77;;;12.10;;
41952;SDS011;63613;28.200;112.870;2023-06-26T12:26:55;15.00;;;10.68;;
41952;SDS011;63613;28.200;112.870;2023-06-26T12:29:31;16.35;;;11.43;;
41952;SDS011;63613;28.200;112.870;2023-06-26T12:31:59;17.42;;;11.65;;
41952;SDS011;63613;28.200;112.870;2023-06-26T12:34:27;16.40;;;11.23;;
41952;SDS011;63613;28.200;112.870;2023-06-26T12:37:04;15.65;;;10.88;;
41952;SDS011;63613;28.200;112.870;2023-06-26T12:39:47;16.27;;;10.88;;
41952;SDS011;63613;28.200;112.870;2023-06-26T12:44:49;15.88;;;10.40;;
41952;SDS011;63613;28.200;112.870;2023-06-26T12:47:17;15.07;;;10.57;;
41952;SDS011;63613;28.200;112.870;2023-06-26T12:49:54;14.43;;;10.70;;
41952;SDS011;63613;28.200;112.870;2023-06-26T12:54:52;14.88;;;10.75;;
41952;SDS011;63613;28.200;112.870;2023-06-26T12:57:21;15.35;;;10.27;;
41952;SDS011;63613;28.200;112.870;2023-06-26T12:59:48;11.48;;;9.85;;
41952;SDS011;63613;28.200;112.870;2023-06-26T13:02:15;12.60;;;9.93;;
41952;SDS011;63613;28.200;112.870;2023-06-26T13:04:42;13.25;;;10.50;;
41952;SDS011;63613;28.200;112.870;2023-06-26T13:07:10;13.25;;;9.88;;
41952;SDS011;63613;28.200;112.870;2023-06-26T13:09:38;14.15;;;9.73;;
41952;SDS011;63613;28.200;112.870;2023-06-26T13:12:06;11.48;;;9.32;;
41952;SDS011;63613;28.200;112.870;2023-06-26T13:14:33;12.23;;;9.48;;
41952;SDS011;63613;28.200;112.870;2023-06-26T13:17:00;11.85;;;9.25;;
41952;SDS011;63613;28.200;112.870;2023-06-26T13:19:27;14.55;;;9.90;;
41952;SDS011;63613;28.200;112.870;2023-06-26T13:21:56;15.45;;;10.05;;
41952;SDS011;63613;28.200;112.870;2023-06-26T13:24:23;14.93;;;9.55;;
41952;SDS011;63613;28.200;112.870;2023-06-26T13:26:50;15.55;;;9.52;;
41952;SDS011;63613;28.200;112.870;2023-06-26T13:29:17;13.93;;;10.40;;
41952;SDS011;63613;28.200;112.870;2023-06-26T13:31:48;15.63;;;10.77;;
41952;SDS011;63613;28.200;112.870;2023-06-26T13:34:22;12.38;;;10.57;;
41952;SDS011;63613;28.200;112.870;2023-06-26T13:36:51;13.18;;;10.40;;
41952;SDS011;63613;28.200;112.870;2023-06-26T13:39:18;13.90;;;10.60;;
41952;SDS011;63613;28.200;112.870;2023-06-26T13:41:45;15.95;;;10.75;;
41952;SDS011;63613;28.200;112.870;2023-06-26T13:44:12;16.02;;;10.50;;
41952;SDS011;63613;28.200;112.870;2023-06-26T13:47:00;14.27;;;10.80;;
41952;SDS011;63613;28.200;112.870;2023-06-26T13:49:27;14.10;;;11.05;;
41952;SDS011;63613;28.200;112.870;2023-06-26T13:52:00;15.90;;;11.38;;
41952;SDS011;63613;28.200;112.870;2023-06-26T13:54:27;17.98;;;11.35;;
41952;SDS011;63613;28.200;112.870;2023-06-26T13:56:54;15.55;;;10.48;;
41952;SDS011;63613;28.200;112.870;2023-06-26T13:59:23;17.38;;;11.98;;
41952;SDS011;63613;28.200;112.870;2023-06-26T14:01:51;17.27;;;12.05;;
41952;SDS011;63613;28.200;112.870;2023-06-26T14:04:17;14.95;;;10.95;;
41952;SDS011;63613;28.200;112.870;2023-06-26T14:06:44;16.35;;;11.57;;
41952;SDS011;63613;28.200;112.870;2023-06-26T14:09:12;17.35;;;10.85;;
41952;SDS011;63613;28.200;112.870;2023-06-26T14:11:41;15.43;;;10.82;;
41952;SDS011;63613;28.200;112.870;2023-06-26T14:14:09;15.38;;;10.10;;
41952;SDS011;63613;28.200;112.870;2023-06-26T14:16:37;14.40;;;10.38;;
41952;SDS011;63613;28.200;112.870;2023-06-26T14:19:05;15.45;;;11.25;;
41952;SDS011;63613;28.200;112.870;2023-06-26T14:21:40;14.80;;;10.60;;
41952;SDS011;63613;28.200;112.870;2023-06-26T14:24:07;13.90;;;10.13;;
41952;SDS011;63613;28.200;112.870;2023-06-26T14:26:34;14.18;;;10.63;;
41952;SDS011;63613;28.200;112.870;2023-06-26T14:29:02;13.43;;;10.52;;
41952;SDS011;63613;28.200;112.870;2023-06-26T14:31:29;13.45;;;10.38;;
41952;SDS011;63613;28.200;112.870;2023-06-26T14:33:56;13.70;;;10.57;;
41952;SDS011;63613;28.200;112.870;2023-06-26T14:36:24;14.90;;;11.82;;
41952;SDS011;63613;28.200;112.870;2023-06-26T14:38:52;13.55;;;10.38;;
41952;SDS011;63613;28.200;112.870;2023-06-26T14:41:20;13.55;;;10.43;;
41952;SDS011;63613;28.200;112.870;2023-06-26T14:43:49;14.38;;;10.65;;
41952;SDS011;63613;28.200;112.870;2023-06-26T14:46:16;16.30;;;11.20;;
41952;SDS011;63613;28.200;112.870;2023-06-26T14:48:44;14.30;;;11.15;;
41952;SDS011;63613;28.200;112.870;2023-06-26T14:51:14;14.00;;;11.65;;
41952;SDS011;63613;28.200;112.870;2023-06-26T14:53:41;13.02;;;10.85;;
41952;SDS011;63613;28.200;112.870;2023-06-26T14:56:10;12.75;;;10.68;;
41952;SDS011;63613;28.200;112.870;2023-06-26T14:58:38;11.18;;;9.90;;
41952;SDS011;63613;28.200;112.870;2023-06-26T15:01:05;11.70;;;10.43;;